Time;durP1;ratioP1;P1;durP2;ratioP2;P2;SDS_P1;SDS_P2;PMS_P1;PMS_P2;Temp;Humidity;BMP_temperature;BMP_pressure;BME280_temperature;BME280_humidity;BME280_pressure;Samples;Min_cycle;Max_cycle;Signal;HPM_P1;HPM_P2
2024/04/17 00:00:46;;;;;;;16.25;6.90;;;;;;;-141.50;100.00;63355.56;5399175;26;20000;-78
2024/04/17 00:03:14;;;;;;;14.88;7.47;;;;;;;-141.50;100.00;63355.56;5407222;26;20003;-83
2024/04/17 00:05:41;;;;;;;16.17;7.20;;;;;;;-141.50;100.00;63355.56;5417355;26;20003;-82
2024/04/17 00:08:08;;;;;;;14.18;7.60;;;;;;;-141.50;100.00;63355.56;5415675;26;20035;-80
2024/04/17 00:10:35;;;;;;;15.43;7.72;;;;;;;-141.50;100.00;63355.56;5413754;26;20080;-81
2024/04/17 00:13:02;;;;;;;15.30;7.65;;;;;;;-141.50;100.00;63355.56;5408241;26;20014;-80
2024/04/17 00:15:29;;;;;;;15.60;8.27;;;;;;;-141.50;100.00;63355.56;5400012;26;20011;-82
2024/04/17 00:17:56;;;;;;;15.63;7.72;;;;;;;-141.50;100.00;63355.56;5408615;26;20011;-81
2024/04/17 00:20:24;;;;;;;15.65;7.60;;;;;;;-141.50;100.00;63355.56;5410168;26;20367;-81
2024/04/17 00:22:50;;;;;;;15.77;7.75;;;;;;;-141.50;100.00;63355.56;5418731;26;20458;-83
2024/04/17 00:25:18;;;;;;;18.50;8.32;;;;;;;-141.50;100.00;63355.56;5403114;26;20012;-83
2024/04/17 00:27:45;;;;;;;18.55;7.90;;;;;;;-141.50;100.00;63355.56;5392561;26;20000;-82
2024/04/17 00:30:12;;;;;;;17.67;7.70;;;;;;;-141.50;100.00;63355.56;5418384;26;20015;-81
2024/04/17 00:32:39;;;;;;;15.85;7.15;;;;;;;-141.50;100.00;63355.56;5398330;26;20003;-83
2024/04/17 00:35:06;;;;;;;15.48;7.22;;;;;;;-141.50;100.00;63355.56;5395437;26;20432;-83
2024/04/17 00:37:33;;;;;;;13.02;6.95;;;;;;;-141.50;100.00;63355.56;5403296;26;20044;-81
2024/04/17 00:40:00;;;;;;;9.82;5.38;;;;;;;-141.50;100.00;63355.56;5385257;26;20008;-81
2024/04/17 00:42:27;;;;;;;8.77;4.65;;;;;;;-141.50;100.00;63355.56;5413386;26;20087;-81
2024/04/17 00:44:54;;;;;;;10.07;5.00;;;;;;;-141.50;100.00;63355.56;5405560;26;20047;-79
2024/04/17 00:47:22;;;;;;;6.25;3.67;;;;;;;-141.50;100.00;63355.56;5411173;26;20007;-80
2024/04/17 00:49:49;;;;;;;8.45;4.45;;;;;;;-141.50;100.00;63355.56;5416631;26;19996;-82
2024/04/17 00:52:18;;;;;;;10.18;4.80;;;;;;;-141.50;100.00;63355.56;5401464;26;20008;-80
2024/04/17 00:54:46;;;;;;;8.65;4.93;;;;;;;-141.50;100.00;63355.56;5399242;26;20073;-81
2024/04/17 00:57:15;;;;;;;12.93;4.93;;;;;;;-141.50;100.00;63355.56;5403252;26;20463;-81
2024/04/17 00:59:43;;;;;;;9.02;4.47;;;;;;;-141.50;100.00;63355.56;5410212;26;20000;-80
2024/04/17 01:02:12;;;;;;;9.63;4.60;;;;;;;-141.50;100.00;63355.56;5394438;26;20010;-80
2024/04/17 01:04:39;;;;;;;10.07;4.25;;;;;;;-141.50;100.00;63355.56;5413243;26;19999;-79
2024/04/17 01:07:06;;;;;;;9.90;4.43;;;;;;;-141.50;100.00;63355.56;5400445;26;19996;-81
2024/04/17 01:09:33;;;;;;;8.05;3.97;;;;;;;-141.50;100.00;63355.56;5385127;26;20015;-81
2024/04/17 01:12:00;;;;;;;9.93;3.90;;;;;;;-141.50;100.00;63355.56;5399841;26;20011;-82
2024/04/17 01:14:27;;;;;;;8.55;4.00;;;;;;;-141.50;100.00;63355.56;5412368;26;20008;-80
2024/04/17 01:16:54;;;;;;;5.63;3.70;;;;;;;-141.50;100.00;63355.56;5400587;26;20042;-82
2024/04/17 01:19:22;;;;;;;7.65;3.80;;;;;;;-141.50;100.00;63355.56;5399348;26;20016;-81
2024/04/17 01:21:49;;;;;;;5.95;3.45;;;;;;;-141.50;100.00;63355.56;5423655;26;20041;-79
2024/04/17 01:24:16;;;;;;;6.10;3.63;;;;;;;-141.50;100.00;63355.56;5400678;26;20033;-79
2024/04/17 01:26:43;;;;;;;7.38;3.45;;;;;;;-141.50;100.00;63355.56;5398849;26;20019;-80
2024/04/17 01:29:10;;;;;;;10.60;3.60;;;;;;;-141.50;100.00;63355.56;5402037;26;20012;-80
2024/04/17 01:31:37;;;;;;;5.15;2.75;;;;;;;-141.50;100.00;63355.56;5414234;26;20640;-81
2024/04/17 01:34:04;;;;;;;5.53;2.83;;;;;;;-141.50;100.00;63355.56;5411590;26;20073;-80
2024/04/17 01:36:31;;;;;;;6.90;2.78;;;;;;;-141.50;100.00;63355.56;5396185;26;20000;-80
2024/04/17 01:38:58;;;;;;;7.72;2.90;;;;;;;-141.50;100.00;63355.56;5404499;26;20003;-81
2024/04/17 01:41:25;;;;;;;6.68;2.55;;;;;;;-141.50;100.00;63355.56;5399449;26;20016;-80
2024/04/17 01:43:52;;;;;;;6.38;2.72;;;;;;;-141.50;100.00;63355.56;5413759;26;20011;-80
2024/04/17 01:46:19;;;;;;;6.78;2.90;;;;;;;-141.50;100.00;63355.56;5413712;26;20624;-80
2024/04/17 01:48:46;;;;;;;6.13;2.78;;;;;;;-141.50;100.00;63355.56;5403973;26;20344;-80
2024/04/17 01:51:13;;;;;;;4.43;2.40;;;;;;;-141.50;100.00;63355.56;5384400;26;20011;-83
2024/04/17 01:53:40;;;;;;;3.85;2.20;;;;;;;-141.50;100.00;63355.56;5412010;26;20004;-83
2024/04/17 01:56:07;;;;;;;3.97;2.08;;;;;;;-141.50;100.00;63355.56;5403209;26;20000;-82
2024/04/17 01:58:34;;;;;;;4.20;2.03;;;;;;;-141.50;100.00;63355.56;5393177;26;20531;-78
2024/04/17 02:01:05;;;;;;;5.72;1.73;;;;;;;-141.50;100.00;63355.56;5400593;26;20539;-83
2024/04/17 02:03:36;;;;;;;6.18;1.83;;;;;;;-141.50;100.00;63355.56;5396445;26;20008;-81
2024/04/17 02:06:03;;;;;;;3.33;1.65;;;;;;;-141.50;100.00;63355.56;5398631;26;20004;-80
2024/04/17 02:08:30;;;;;;;3.38;1.70;;;;;;;-141.50;100.00;63355.56;5408524;26;20039;-82
2024/04/17 02:10:57;;;;;;;4.55;1.83;;;;;;;-141.50;100.00;63355.56;5388029;26;19999;-81
2024/04/17 02:13:25;;;;;;;4.95;1.95;;;;;;;-141.50;100.00;63355.56;5397232;26;20012;-81
2024/04/17 02:15:52;;;;;;;4.72;1.70;;;;;;;-141.50;100.00;63355.56;5400169;26;20003;-82
2024/04/17 02:18:20;;;;;;;3.97;1.73;;;;;;;-141.50;100.00;63355.56;5410835;26;20011;-79
2024/04/17 02:20:47;;;;;;;6.50;1.50;;;;;;;-141.50;100.00;63355.56;5395554;26;20029;-79
2024/04/17 02:23:14;;;;;;;3.15;1.83;;;;;;;-141.50;100.00;63355.56;5397327;26;19995;-81
2024/04/17 02:25:41;;;;;;;3.40;1.70;;;;;;;-141.50;100.00;63355.56;5395689;26;20004;-79
2024/04/17 02:28:08;;;;;;;4.85;1.70;;;;;;;-141.50;100.00;63355.56;5399867;26;20016;-79
2024/04/17 02:30:35;;;;;;;4.82;1.60;;;;;;;-141.50;100.00;63355.56;5373184;26;20092;-81
2024/04/17 02:33:03;;;;;;;3.08;1.63;;;;;;;-141.50;100.00;63355.56;5403271;26;20010;-79
2024/04/17 02:35:30;;;;;;;2.70;1.42;;;;;;;-141.50;100.00;63355.56;5404781;26;20007;-80
2024/04/17 02:37:57;;;;;;;4.85;1.65;;;;;;;-141.50;100.00;63355.56;5412572;26;20557;-77
2024/04/17 02:40:24;;;;;;;7.47;1.73;;;;;;;-141.50;100.00;63355.56;5393040;26;20082;-79
2024/04/17 02:42:51;;;;;;;3.63;1.73;;;;;;;-141.50;100.00;63355.56;5399191;26;20000;-81
2024/04/17 02:45:18;;;;;;;3.05;1.45;;;;;;;-141.50;100.00;63355.56;5402196;26;20413;-78
2024/04/17 02:47:48;;;;;;;1.88;1.13;;;;;;;-141.50;100.00;63355.56;5398417;26;20338;-83
2024/04/17 02:50:15;;;;;;;2.78;1.50;;;;;;;-141.50;100.00;63355.56;5392831;26;20023;-80
2024/04/17 02:52:42;;;;;;;2.22;1.40;;;;;;;-141.50;100.00;63355.56;5409386;26;20026;-80
2024/04/17 02:55:09;;;;;;;3.30;1.30;;;;;;;-141.50;100.00;63355.56;5408139;26;19996;-82
2024/04/17 02:57:36;;;;;;;4.90;1.75;;;;;;;-141.50;100.00;63355.56;5411270;26;20018;-80
2024/04/17 03:00:03;;;;;;;2.65;1.52;;;;;;;-141.50;100.00;63355.56;5399567;26;19996;-80
2024/04/17 03:02:31;;;;;;;4.35;1.75;;;;;;;-141.50;100.00;63355.56;5390494;26;20004;-79
2024/04/17 03:04:58;;;;;;;2.97;1.38;;;;;;;-141.50;100.00;63355.56;5395381;26;20447;-80
2024/04/17 03:07:26;;;;;;;2.05;1.30;;;;;;;-141.50;100.00;63355.56;5410159;26;20008;-79
2024/04/17 03:09:55;;;;;;;2.28;1.33;;;;;;;-141.50;100.00;63355.56;5409580;26;20008;-79
2024/04/17 03:12:22;;;;;;;2.85;1.40;;;;;;;-141.50;100.00;63355.56;5403373;26;20493;-78
2024/04/17 03:14:49;;;;;;;3.17;1.52;;;;;;;-141.50;100.00;63355.56;5409625;26;20043;-78
2024/04/17 03:17:16;;;;;;;3.58;1.65;;;;;;;-141.50;100.00;63355.56;5410314;26;20011;-81
2024/04/17 03:19:45;;;;;;;4.25;1.52;;;;;;;-141.50;100.00;63355.56;5396464;26;20324;-80
2024/04/17 03:22:12;;;;;;;3.17;1.42;;;;;;;-141.50;100.00;63355.56;5394779;26;19999;-81
2024/04/17 03:24:39;;;;;;;4.32;1.58;;;;;;;-141.50;100.00;63355.56;5408462;26;20015;-80
2024/04/17 03:27:07;;;;;;;3.97;1.50;;;;;;;-141.50;100.00;63355.56;5406081;26;20007;-82
2024/04/17 03:29:34;;;;;;;4.18;1.75;;;;;;;-141.50;100.00;63355.56;5393344;26;20016;-81
2024/04/17 03:32:05;;;;;;;6.32;1.60;;;;;;;-141.50;100.00;63355.56;5413775;26;20003;-83
2024/04/17 03:34:32;;;;;;;5.25;1.92;;;;;;;-141.50;100.00;63355.56;5412106;26;20046;-81
2024/04/17 03:36:59;;;;;;;4.45;1.67;;;;;;;-141.50;100.00;63355.56;5415862;26;20321;-83
2024/04/17 03:39:26;;;;;;;4.07;1.90;;;;;;;-141.50;100.00;63355.56;5402607;26;20011;-81
2024/04/17 03:41:52;;;;;;;4.03;1.90;;;;;;;-141.50;100.00;63355.56;5412451;26;20019;-82
2024/04/17 03:44:19;;;;;;;3.25;1.80;;;;;;;-141.50;100.00;63355.56;5356506;26;20019;-81
2024/04/17 03:46:46;;;;;;;5.53;2.00;;;;;;;-141.50;100.00;63355.56;5385133;26;20079;-82
2024/04/17 03:49:15;;;;;;;5.22;2.00;;;;;;;-141.50;100.00;63355.56;5413644;26;20728;-83
2024/04/17 03:51:42;;;;;;;4.82;2.22;;;;;;;-141.50;100.00;63355.56;5413090;26;20003;-82
2024/04/17 03:54:08;;;;;;;8.02;2.53;;;;;;;-141.50;100.00;63355.56;5391851;26;20001;-83
2024/04/17 03:56:35;;;;;;;3.70;2.15;;;;;;;-141.50;100.00;63355.56;5419266;26;20010;-82
2024/04/17 03:59:02;;;;;;;6.15;2.63;;;;;;;-141.50;100.00;63355.56;5398058;26;19999;-81
2024/04/17 04:01:34;;;;;;;6.85;2.92;;;;;;;-141.50;100.00;63355.56;5384532;26;20496;-80
2024/04/17 04:04:03;;;;;;;5.78;3.13;;;;;;;-141.50;100.00;63355.56;5403291;26;20011;-79
2024/04/17 04:06:30;;;;;;;9.23;3.65;;;;;;;-141.50;100.00;63355.56;5407966;26;20092;-81
2024/04/17 04:08:57;;;;;;;6.35;3.58;;;;;;;-141.50;100.00;63355.56;5402150;26;21544;-82
2024/04/17 04:11:24;;;;;;;8.60;3.15;;;;;;;-141.50;100.00;63355.56;5395453;26;20672;-79
2024/04/17 04:13:51;;;;;;;8.23;3.78;;;;;;;-141.50;100.00;63355.56;5394191;26;20007;-82
2024/04/17 04:16:18;;;;;;;6.53;3.45;;;;;;;-141.50;100.00;63355.56;5403183;26;20003;-81
2024/04/17 04:18:45;;;;;;;8.02;3.60;;;;;;;-141.50;100.00;63355.56;5400537;26;20043;-82
2024/04/17 04:21:12;;;;;;;8.90;4.05;;;;;;;-141.50;100.00;63355.56;5413763;26;20000;-79
2024/04/17 04:23:39;;;;;;;6.60;3.13;;;;;;;-141.50;100.00;63355.56;5393711;26;20018;-79
2024/04/17 04:26:06;;;;;;;7.20;3.40;;;;;;;-141.50;100.00;63355.56;5403621;26;20050;-80
2024/04/17 04:28:33;;;;;;;8.07;3.15;;;;;;;-141.50;100.00;63355.56;5408674;26;19999;-79
2024/04/17 04:31:00;;;;;;;9.10;3.53;;;;;;;-141.50;100.00;63355.56;5404819;26;20057;-80
2024/04/17 04:33:27;;;;;;;6.63;4.35;;;;;;;-141.50;100.00;63355.56;5397274;26;20015;-80
2024/04/17 04:35:54;;;;;;;7.32;3.60;;;;;;;-141.50;100.00;63355.56;5411408;26;20013;-80
2024/04/17 04:38:21;;;;;;;7.90;3.80;;;;;;;-141.50;100.00;63355.56;5395867;26;20066;-79
2024/04/17 04:40:48;;;;;;;7.93;4.15;;;;;;;-141.50;100.00;63355.56;5394048;26;20016;-79
2024/04/17 04:43:15;;;;;;;9.00;3.65;;;;;;;-141.50;100.00;63355.56;5406530;26;20046;-81
2024/04/17 04:45:42;;;;;;;11.80;4.28;;;;;;;-141.50;100.00;63355.56;5406400;26;20004;-80
2024/04/17 04:48:09;;;;;;;8.50;4.10;;;;;;;-141.50;100.00;63355.56;5412236;26;20004;-78
2024/04/17 04:50:37;;;;;;;7.43;3.95;;;;;;;-141.50;100.00;63355.56;5412264;26;20004;-79
2024/04/17 04:53:04;;;;;;;10.73;3.97;;;;;;;-141.50;100.00;63355.56;5403945;26;20008;-82
2024/04/17 04:55:32;;;;;;;7.97;4.38;;;;;;;-141.50;100.00;63355.56;5399969;26;20443;-81
2024/04/17 04:57:59;;;;;;;9.75;4.72;;;;;;;-141.50;100.00;63355.56;5402142;26;20424;-80
2024/04/17 05:00:26;;;;;;;9.52;4.50;;;;;;;-141.50;100.00;63355.56;5409679;26;20000;-80
2024/04/17 05:02:53;;;;;;;9.82;4.82;;;;;;;-141.50;100.00;63355.56;5393652;26;20020;-77
2024/04/17 05:05:20;;;;;;;15.73;5.55;;;;;;;-141.50;100.00;63355.56;5394276;26;20022;-78
2024/04/17 05:07:47;;;;;;;11.43;4.63;;;;;;;-141.50;100.00;63355.56;5394613;26;20453;-77
2024/04/17 05:10:14;;;;;;;14.73;5.00;;;;;;;-141.50;100.00;63355.56;5405003;26;20080;-78
2024/04/17 05:12:41;;;;;;;12.88;5.38;;;;;;;-141.50;100.00;63355.56;5403118;26;20030;-79
2024/04/17 05:15:08;;;;;;;10.48;4.90;;;;;;;-141.50;100.00;63355.56;5401996;26;20466;-81
2024/04/17 05:17:35;;;;;;;10.23;4.70;;;;;;;-141.50;100.00;63355.56;5413882;26;20233;-80
2024/04/17 05:20:02;;;;;;;8.82;4.05;;;;;;;-141.50;100.00;63355.56;5394808;26;20086;-80
2024/04/17 05:22:29;;;;;;;9.95;4.55;;;;;;;-141.50;100.00;63355.56;5400531;26;20080;-79
2024/04/17 05:24:56;;;;;;;10.07;4.20;;;;;;;-141.50;100.00;63355.56;5384116;26;20001;-80
2024/04/17 05:27:23;;;;;;;7.00;3.83;;;;;;;-141.50;100.00;63355.56;5386962;26;20273;-78
2024/04/17 05:29:50;;;;;;;8.30;4.30;;;;;;;-141.50;100.00;63355.56;5405572;26;20028;-78
2024/04/17 05:32:17;;;;;;;7.95;4.10;;;;;;;-141.50;100.00;63355.56;5404725;26;20027;-81
2024/04/17 05:34:44;;;;;;;8.57;3.80;;;;;;;-141.50;100.00;63355.56;5405710;26;20058;-79
2024/04/17 05:37:11;;;;;;;8.10;3.83;;;;;;;-141.50;100.00;63355.56;5398778;26;20015;-80
2024/04/17 05:39:38;;;;;;;8.68;3.78;;;;;;;-141.50;100.00;63355.56;5396104;26;20027;-79
2024/04/17 05:42:05;;;;;;;8.88;3.65;;;;;;;-141.50;100.00;63355.56;5393174;26;20594;-81
2024/04/17 05:44:32;;;;;;;8.05;3.83;;;;;;;-141.50;100.00;63355.56;5433786;26;20008;-80
2024/04/17 05:46:59;;;;;;;8.50;3.88;;;;;;;-141.50;100.00;63355.56;5393459;26;20014;-79
2024/04/17 05:49:27;;;;;;;9.80;4.35;;;;;;;-141.50;100.00;63355.56;5393711;26;20004;-80
2024/04/17 05:51:54;;;;;;;8.82;4.00;;;;;;;-141.50;100.00;63355.56;5406692;26;20542;-80
2024/04/17 05:54:21;;;;;;;7.75;3.97;;;;;;;-141.50;100.00;63355.56;5396295;26;20012;-82
2024/04/17 05:56:49;;;;;;;10.45;4.65;;;;;;;-141.50;100.00;63355.56;5409090;26;20007;-79
2024/04/17 05:59:16;;;;;;;8.65;3.72;;;;;;;-141.50;100.00;63355.56;5404733;26;20023;-80
2024/04/17 06:01:43;;;;;;;10.65;4.10;;;;;;;-141.50;100.00;63355.56;5395995;26;20011;-81
2024/04/17 06:04:10;;;;;;;8.73;3.95;;;;;;;-141.50;100.00;63355.56;5408003;26;20003;-79
2024/04/17 06:06:37;;;;;;;9.70;4.38;;;;;;;-141.50;100.00;63355.56;5410606;26;20018;-82
2024/04/17 06:09:04;;;;;;;9.88;4.00;;;;;;;-141.50;100.00;63355.56;5411092;26;20036;-80
2024/04/17 06:11:31;;;;;;;8.35;3.63;;;;;;;-141.50;100.00;63355.56;5411112;26;20004;-81
2024/04/17 06:13:58;;;;;;;10.95;3.72;;;;;;;-141.50;100.00;63355.56;5408297;26;20004;-79
2024/04/17 06:16:31;;;;;;;8.20;3.33;;;;;;;-141.50;100.00;63355.56;5402703;26;20004;-83
2024/04/17 06:18:58;;;;;;;7.93;3.58;;;;;;;-141.50;100.00;63355.56;5411291;26;20325;-80
2024/04/17 06:21:27;;;;;;;11.15;3.78;;;;;;;-141.50;100.00;63355.56;5410088;26;20019;-79
2024/04/17 06:23:54;;;;;;;6.85;3.30;;;;;;;-141.50;100.00;63355.56;5395543;26;20442;-79
2024/04/17 06:26:21;;;;;;;5.82;2.80;;;;;;;-141.50;100.00;63355.56;5389437;26;20004;-80
2024/04/17 06:28:48;;;;;;;6.53;3.65;;;;;;;-141.50;100.00;63355.56;5399106;26;20689;-80
2024/04/17 06:31:15;;;;;;;7.03;3.05;;;;;;;-141.50;100.00;63355.56;5397135;26;20023;-77
2024/04/17 06:33:42;;;;;;;7.82;3.50;;;;;;;-141.50;100.00;63355.56;5392128;26;20007;-79
2024/04/17 06:36:10;;;;;;;8.35;2.63;;;;;;;-141.50;100.00;63355.56;5398265;26;20004;-80
2024/04/17 06:38:37;;;;;;;7.72;2.58;;;;;;;-141.50;100.00;63355.56;5397397;26;20008;-79
2024/04/17 06:41:04;;;;;;;6.60;2.60;;;;;;;-141.50;100.00;63355.56;5406117;26;20530;-81
2024/04/17 06:43:31;;;;;;;7.30;3.40;;;;;;;-141.50;100.00;63355.56;5391351;26;20000;-79
2024/04/17 06:45:58;;;;;;;14.88;3.20;;;;;;;-141.50;100.00;63355.56;5409313;26;20483;-77
2024/04/17 06:48:25;;;;;;;7.18;3.00;;;;;;;-141.50;100.00;63355.56;5406931;26;20013;-79
2024/04/17 06:50:54;;;;;;;5.68;3.13;;;;;;;-141.50;100.00;63355.56;5382092;26;20020;-78
2024/04/17 06:53:22;;;;;;;6.82;2.90;;;;;;;-141.50;100.00;63355.56;5398976;26;20019;-82
2024/04/17 06:55:49;;;;;;;6.95;3.08;;;;;;;-141.50;100.00;63355.56;5389816;26;20432;-81
2024/04/17 06:58:16;;;;;;;6.10;2.80;;;;;;;-141.50;100.00;63355.56;5395588;26;20004;-81
2024/04/17 07:00:43;;;;;;;6.13;3.28;;;;;;;-141.50;100.00;63355.56;5393061;26;20016;-81
2024/04/17 07:03:10;;;;;;;6.30;3.22;;;;;;;-141.50;100.00;63355.56;5403843;26;20022;-81
2024/04/17 07:05:37;;;;;;;7.28;3.28;;;;;;;-141.50;100.00;63355.56;5393383;26;20341;-80
2024/04/17 07:08:04;;;;;;;11.40;4.20;;;;;;;-141.50;100.00;63355.56;5408677;26;20015;-82
2024/04/17 07:10:31;;;;;;;10.65;4.35;;;;;;;-141.50;100.00;63355.56;5394386;26;20452;-80
2024/04/17 07:12:58;;;;;;;10.27;5.22;;;;;;;-141.50;100.00;63355.56;5406395;26;20018;-84
2024/04/17 07:15:26;;;;;;;8.65;3.63;;;;;;;-141.50;100.00;63355.56;5410891;26;20004;-83
2024/04/17 07:17:53;;;;;;;6.95;3.22;;;;;;;-141.50;100.00;63355.56;5383523;26;20600;-82
2024/04/17 07:20:19;;;;;;;10.00;3.47;;;;;;;-141.50;100.00;63355.56;5408361;26;20073;-81
2024/04/17 07:22:47;;;;;;;8.30;3.38;;;;;;;-141.50;100.00;63355.56;5398589;26;20024;-81
2024/04/17 07:25:16;;;;;;;10.75;3.92;;;;;;;-141.50;100.00;63355.56;5385580;26;20453;-83
2024/04/17 07:27:44;;;;;;;10.13;5.13;;;;;;;-141.50;100.00;63355.56;5410887;26;20015;-78
2024/04/17 07:30:12;;;;;;;10.25;4.43;;;;;;;-141.50;100.00;63355.56;5410781;26;20014;-80
2024/04/17 07:32:39;;;;;;;11.98;4.32;;;;;;;-141.50;100.00;63355.56;5408529;26;20008;-81
2024/04/17 07:35:07;;;;;;;8.55;4.03;;;;;;;-141.50;100.00;63355.56;5409021;26;20007;-81
2024/04/17 07:37:34;;;;;;;7.32;3.72;;;;;;;-141.50;100.00;63355.56;5392074;26;20381;-82
2024/04/17 07:40:01;;;;;;;10.30;3.60;;;;;;;-141.50;100.00;63355.56;5406046;26;20053;-82
2024/04/17 07:42:28;;;;;;;10.52;4.13;;;;;;;-141.50;100.00;63355.56;5408606;26;20010;-82
2024/04/17 07:44:55;;;;;;;9.65;4.03;;;;;;;-141.50;100.00;63355.56;5390273;26;20473;-81
2024/04/17 07:47:23;;;;;;;8.27;3.78;;;;;;;-141.50;100.00;63355.56;5397473;26;20086;-81
2024/04/17 07:49:51;;;;;;;6.65;3.45;;;;;;;-141.50;100.00;63355.56;5398931;26;19996;-82
2024/04/17 07:52:18;;;;;;;6.18;3.55;;;;;;;-141.50;100.00;63355.56;5407176;26;20347;-81
2024/04/17 07:54:45;;;;;;;9.13;3.95;;;;;;;-141.50;100.00;63355.56;5397591;26;20399;-80
2024/04/17 07:57:12;;;;;;;7.47;3.72;;;;;;;-141.50;100.00;63355.56;5401481;26;20014;-83
2024/04/17 07:59:39;;;;;;;6.28;3.60;;;;;;;-141.50;100.00;63355.56;5406232;26;20018;-82
2024/04/17 08:02:06;;;;;;;10.27;3.70;;;;;;;-141.50;100.00;63355.56;5390385;26;20000;-81
2024/04/17 08:04:34;;;;;;;7.47;3.05;;;;;;;-141.50;100.00;63355.56;5406105;26;20010;-80
2024/04/17 08:07:01;;;;;;;6.28;3.00;;;;;;;-141.50;100.00;63355.56;5388898;26;19996;-82
2024/04/17 08:09:28;;;;;;;8.10;2.97;;;;;;;-141.50;100.00;63355.56;5403917;26;20015;-81
2024/04/17 08:11:55;;;;;;;7.05;2.70;;;;;;;-141.50;100.00;63355.56;5406724;26;20003;-81
2024/04/17 08:14:22;;;;;;;9.45;2.70;;;;;;;-141.50;100.00;63355.56;5411041;26;20010;-81
2024/04/17 08:16:49;;;;;;;13.27;4.20;;;;;;;-141.50;100.00;63355.56;5388288;26;20014;-82
2024/04/17 08:19:17;;;;;;;9.73;3.63;;;;;;;-141.50;100.00;63355.56;5394255;26;20007;-82
2024/04/17 08:21:44;;;;;;;10.50;3.45;;;;;;;-141.50;100.00;63355.56;5393835;26;20387;-80
2024/04/17 08:24:11;;;;;;;8.88;3.42;;;;;;;-141.50;100.00;63355.56;5412130;26;20507;-81
2024/04/17 08:26:39;;;;;;;10.55;3.78;;;;;;;-141.50;100.00;63355.56;5391171;26;20351;-80
2024/04/17 08:29:06;;;;;;;11.95;4.00;;;;;;;-141.50;100.00;63355.56;5391635;26;20058;-83
2024/04/17 08:31:33;;;;;;;8.32;2.78;;;;;;;-141.50;100.00;63355.56;5412277;26;20479;-81
2024/04/17 08:34:00;;;;;;;8.60;2.97;;;;;;;-141.50;100.00;63355.56;5412292;26;20014;-78
2024/04/17 08:36:27;;;;;;;5.18;2.33;;;;;;;-141.50;100.00;63355.56;5399720;26;20039;-80
2024/04/17 08:38:56;;;;;;;11.00;3.00;;;;;;;-141.50;100.00;63355.56;5387219;26;20019;-81
2024/04/17 08:41:28;;;;;;;6.22;2.92;;;;;;;-141.50;100.00;63355.56;5412834;26;20021;-80
2024/04/17 08:44:00;;;;;;;10.13;3.58;;;;;;;-141.50;100.00;63355.56;5429598;26;20015;-80
2024/04/17 08:46:28;;;;;;;8.82;3.45;;;;;;;-141.50;100.00;63355.56;5399130;26;20007;-82
2024/04/17 08:48:56;;;;;;;12.65;5.03;;;;;;;-141.50;100.00;63355.56;5404577;26;20008;-80
2024/04/17 08:51:24;;;;;;;8.52;4.63;;;;;;;-141.50;100.00;63355.56;5406260;26;20148;-80
2024/04/17 08:53:57;;;;;;;11.20;4.10;;;;;;;-141.50;100.00;63355.56;5393155;26;20079;-82
2024/04/17 08:56:25;;;;;;;8.25;3.33;;;;;;;-141.50;100.00;63355.56;5392046;26;20502;-80
2024/04/17 08:58:54;;;;;;;7.20;3.70;;;;;;;-141.50;100.00;63355.56;5404702;26;20000;-78
2024/04/17 09:01:28;;;;;;;7.10;3.95;;;;;;;-141.50;100.00;63355.56;5401414;26;20491;-80
2024/04/17 09:03:55;;;;;;;11.10;4.70;;;;;;;-141.50;100.00;63355.56;5397082;26;20011;-80
2024/04/17 09:06:22;;;;;;;11.80;4.72;;;;;;;-141.50;100.00;63355.56;5406101;26;20016;-81
2024/04/17 09:08:50;;;;;;;9.00;5.05;;;;;;;-141.50;100.00;63355.56;5409210;26;19999;-82
2024/04/17 09:11:19;;;;;;;11.65;4.78;;;;;;;-141.50;100.00;63355.56;5393268;26;20011;-76
2024/04/17 09:13:46;;;;;;;9.45;4.82;;;;;;;-141.50;100.00;63355.56;5402446;26;20003;-78
2024/04/17 09:16:13;;;;;;;9.52;3.40;;;;;;;-141.50;100.00;63355.56;5405266;26;20049;-81
2024/04/17 09:18:41;;;;;;;7.32;2.70;;;;;;;-141.50;100.00;63355.56;5405100;26;20000;-81
2024/04/17 09:21:10;;;;;;;8.60;3.88;;;;;;;-141.50;100.00;63355.56;5388243;26;20061;-78
2024/04/17 09:23:36;;;;;;;8.75;4.50;;;;;;;-141.50;100.00;63355.56;5399891;26;19996;-81
2024/04/17 09:26:14;;;;;;;8.60;5.05;;;;;;;-141.50;100.00;63355.56;5380960;26;20101;-81
2024/04/17 09:28:41;;;;;;;17.58;4.85;;;;;;;-141.50;100.00;63355.56;5376387;26;20026;-78
2024/04/17 09:31:09;;;;;;;8.50;4.57;;;;;;;-141.50;100.00;63355.56;5403549;26;20015;-80
2024/04/17 09:33:46;;;;;;;7.43;4.35;;;;;;;-141.50;100.00;63355.56;5408999;26;20012;-82
2024/04/17 09:36:14;;;;;;;8.60;4.07;;;;;;;-141.50;100.00;63355.56;5408971;26;20009;-81
2024/04/17 09:38:41;;;;;;;8.30;3.90;;;;;;;-141.50;100.00;63355.56;5408402;26;20366;-83
2024/04/17 09:41:09;;;;;;;8.57;4.05;;;;;;;-141.50;100.00;63355.56;5392468;26;20007;-81
2024/04/17 09:43:44;;;;;;;6.93;3.85;;;;;;;-141.50;100.00;63355.56;5410431;26;19999;-82
2024/04/17 09:46:15;;;;;;;5.38;3.20;;;;;;;-141.50;100.00;63355.56;5415184;26;20011;-81
2024/04/17 09:48:49;;;;;;;6.53;3.20;;;;;;;-141.50;100.00;63355.56;5395988;26;20387;-81
2024/04/17 09:51:20;;;;;;;8.68;3.78;;;;;;;-141.50;100.00;63355.56;5406746;26;20011;-82
2024/04/17 09:53:55;;;;;;;6.13;3.67;;;;;;;-141.50;100.00;63355.56;5413851;26;20415;-80
2024/04/17 09:56:23;;;;;;;9.32;4.35;;;;;;;-141.50;100.00;63355.56;5412307;26;20449;-79
2024/04/17 09:58:53;;;;;;;9.57;3.90;;;;;;;-141.50;100.00;63355.56;5406697;26;20008;-80
2024/04/17 10:01:32;;;;;;;8.88;4.57;;;;;;;-141.50;100.00;63355.56;5406391;26;20035;-82
2024/04/17 10:04:01;;;;;;;11.23;4.75;;;;;;;-141.50;100.00;63355.56;5398302;26;20583;-80
2024/04/17 10:06:30;;;;;;;9.02;4.80;;;;;;;-141.50;100.00;63355.56;5412404;26;20011;-83
2024/04/17 10:08:58;;;;;;;8.70;4.30;;;;;;;-141.50;100.00;63355.56;5386791;26;20007;-84
2024/04/17 10:11:26;;;;;;;9.57;4.72;;;;;;;-141.50;100.00;63355.56;5396576;26;20046;-83
2024/04/17 10:13:55;;;;;;;8.55;4.28;;;;;;;-141.50;100.00;63355.56;5399777;26;20018;-80
2024/04/17 10:16:22;;;;;;;8.52;3.90;;;;;;;13.40;82.22;96850.78;5410587;26;20477;-80
2024/04/17 10:18:49;;;;;;;6.90;3.40;;;;;;;12.81;80.18;96848.09;5379287;26;20069;-81
2024/04/17 10:21:21;;;;;;;6.82;3.33;;;;;;;13.17;79.51;96851.72;5388337;26;20429;-81
2024/04/17 10:24:00;;;;;;;5.35;2.72;;;;;;;12.47;72.21;96854.91;5397152;26;20004;-81
2024/04/17 10:26:43;;;;;;;5.30;2.60;;;;;;;12.86;71.98;96845.13;5398265;26;20479;-82
2024/04/17 10:29:41;;;;;;;5.63;2.67;;;;;;;12.95;70.97;96856.63;5405344;26;20398;-81
2024/04/17 10:32:11;;;;;;;4.03;2.13;;;;;;;12.98;67.13;96844.25;5408732;26;20018;-80
2024/04/17 10:34:52;;;;;;;5.03;2.65;;;;;;;13.52;68.55;96853.38;5410793;26;20028;-80
2024/04/17 10:37:19;;;;;;;4.05;2.50;;;;;;;13.66;65.38;96864.59;5388336;26;20015;-81
2024/04/17 10:39:47;;;;;;;4.50;2.50;;;;;;;12.63;63.57;96852.25;5406595;26;20050;-78
2024/04/17 10:42:16;;;;;;;6.50;2.70;;;;;;;12.48;67.05;96855.72;5402227;26;20004;-80
2024/04/17 10:44:45;;;;;;;8.23;3.30;;;;;;;12.82;74.03;96852.38;5409429;26;20077;-80
2024/04/17 10:47:33;;;;;;;5.40;2.67;;;;;;;11.93;67.49;96850.22;5411163;26;20032;-80
2024/04/17 10:50:01;;;;;;;7.15;3.63;;;;;;;12.05;74.15;96853.72;5388628;26;20010;-82
2024/04/17 10:52:30;;;;;;;5.88;3.05;;;;;;;11.38;75.57;96861.66;5410233;26;20007;-79
2024/04/17 10:54:59;;;;;;;7.03;3.75;;;;;;;11.00;84.85;96851.91;5390481;26;20333;-81
2024/04/17 10:57:31;;;;;;;7.70;4.03;;;;;;;10.85;93.27;96844.44;5395586;26;20658;-80
2024/04/17 10:59:58;;;;;;;7.10;4.22;;;;;;;10.86;97.69;96845.25;5428884;26;20003;-81
2024/04/17 11:02:27;;;;;;;7.13;3.67;;;;;;;11.09;98.95;96841.00;5410958;26;20006;-80
2024/04/17 11:04:54;;;;;;;9.77;4.50;;;;;;;11.37;100.00;96850.03;5390180;26;20028;-80
2024/04/17 11:07:22;;;;;;;7.57;3.53;;;;;;;11.32;96.08;96852.19;5408937;26;20014;-82
2024/04/17 11:09:49;;;;;;;10.02;3.58;;;;;;;11.03;97.99;96843.13;5409647;26;20023;-81
2024/04/17 11:12:20;;;;;;;5.18;3.40;;;;;;;10.66;96.39;96844.16;5409430;26;20084;-81